Etusivu
METAR-TAF:

METAR-TAF

Lentoasemat :

Great Falls, Montana, Yhdysvallat

Leveyspiiri: 47-28-24N, Pituuspiiri: 111-22-56W, korkeus merenpinnasta: 1120 m

Tämänhetkinen sää

Tämä raportti tehtiin 1 tunti ja 6 minuuttia sitten, kello 04.53 UTC
tyyntä
Lämpötila 8°C
Kosteus 36%
Ilmanpaine 1019 hPa
Näkyvyys: 16.1 km
selkeää

METAR: KGTF 210453Z 00000KT 10SM CLR 08/M06 A3008 RMK AO2 SLP182 T00781061

Aika: 23:59 (05:59 UTC)

Sääennuste

Tämä raportti tehtiin 19 minuuttia sitten, kello 05.40 UTC
Ennuste voimassa 21. päivästä klo 06 UTC - 22. päivään klo 06 UTC
Tuuli 6 kn lounaasta
Näkyvyys: 10 km
selkeää
From 21. päivästä klo 1600 UTC
Tuuli 5 kn koillisesta
Näkyvyys: 10 km
selkeää

TAF: KGTF 210540Z 2106/2206 23006KT P6SM SKC FM211600 05005KT P6SM SKC

Säähavainnot ja -ennusteet yli 4000 lentoasemalta (METAR- ja TAF-raportit).

Käytössä olevat sääasemat on merkitty karttaan keltaisilla ja punaisilla pisteillä.

Aseta hiiri pisteen päälle nähdäksesi sääaseman nimen.

Klikkaa sitten nähdäksesi säähavainnot ja -ennusteet.

Kartan vaihtaminen: klikkaa mustalla rastilla varustettuja vihreitä pisteitä, niin voit zoomata sisään; viivalla varustettua vihreää pistettä, niin voit zoomata ulos tai vihreitä nuolia, niin pääset viereisille kartoille.


METAR-TAF: